Time;durP1;ratioP1;P1;durP2;ratioP2;P2;SDS_P1;SDS_P2;PMS_P1;PMS_P2;Temp;Humidity;BMP_temperature;BMP_pressure;BME280_temperature;BME280_humidity;BME280_pressure;Samples;Min_cycle;Max_cycle;Signal;HPM_P1;HPM_P2
2023/05/28 00:00:30;;;;;;;22.83;7.60;;;;;;;;;;5028415;28;20384;-74
2023/05/28 00:02:56;;;;;;;29.15;7.60;;;;;;;;;;5009691;28;20026;-73
2023/05/28 00:05:22;;;;;;;27.77;7.75;;;;;;;;;;5010152;28;20604;-73
2023/05/28 00:07:48;;;;;;;29.58;8.60;;;;;;;;;;5010936;28;20038;-74
2023/05/28 00:10:14;;;;;;;32.10;9.48;;;;;;;;;;5010999;28;20022;-73
2023/05/28 00:12:40;;;;;;;29.15;9.45;;;;;;;;;;5010384;28;20546;-74
2023/05/28 00:15:07;;;;;;;32.90;9.20;;;;;;;;;;5010798;28;20050;-74
2023/05/28 00:17:33;;;;;;;28.00;8.65;;;;;;;;;;5010380;28;20034;-72
2023/05/28 00:19:59;;;;;;;27.25;8.57;;;;;;;;;;5010692;28;20025;-74
2023/05/28 00:22:25;;;;;;;28.40;8.10;;;;;;;;;;5010786;28;20121;-73
2023/05/28 00:24:51;;;;;;;27.17;8.70;;;;;;;;;;5012467;28;20053;-74
2023/05/28 00:27:17;;;;;;;23.48;7.63;;;;;;;;;;5011327;28;20251;-72
2023/05/28 00:29:43;;;;;;;27.13;8.82;;;;;;;;;;5010830;28;20018;-74
2023/05/28 00:32:09;;;;;;;22.80;7.97;;;;;;;;;;5010825;28;20035;-74
2023/05/28 00:34:35;;;;;;;27.50;8.73;;;;;;;;;;5010691;28;20030;-73
2023/05/28 00:37:02;;;;;;;25.88;7.60;;;;;;;;;;5010550;28;20018;-75
2023/05/28 00:39:28;;;;;;;22.35;7.25;;;;;;;;;;5010612;28;20113;-74
2023/05/28 00:42:01;;;;;;;18.85;7.53;;;;;;;;;;5009864;28;20105;-74
2023/05/28 00:44:28;;;;;;;23.63;7.45;;;;;;;;;;5012356;28;20079;-74
2023/05/28 00:46:54;;;;;;;32.92;9.55;;;;;;;;;;5014084;28;20018;-74
2023/05/28 00:49:21;;;;;;;32.45;13.38;;;;;;;;;;5013750;28;20026;-74
2023/05/28 00:51:47;;;;;;;34.83;12.35;;;;;;;;;;5013217;28;20022;-73
2023/05/28 00:54:13;;;;;;;30.42;10.82;;;;;;;;;;5013863;28;20026;-73
2023/05/28 00:56:40;;;;;;;40.70;11.05;;;;;;;;;;5013423;28;20061;-73
2023/05/28 00:59:07;;;;;;;36.13;9.93;;;;;;;;;;5014404;28;20041;-73
2023/05/28 01:01:33;;;;;;;31.63;10.85;;;;;;;;;;5014191;28;20022;-74
2023/05/28 01:04:00;;;;;;;29.10;10.35;;;;;;;;;;5014379;28;20192;-73
2023/05/28 01:06:28;;;;;;;38.63;14.00;;;;;;;;;;5014509;28;20444;-74
2023/05/28 01:08:55;;;;;;;39.92;16.10;;;;;;;;;;5013353;28;20505;-73
2023/05/28 01:11:21;;;;;;;42.22;14.98;;;;;;;;;;5014305;28;20022;-73
2023/05/28 01:13:48;;;;;;;39.50;12.63;;;;;;;;;;5014099;28;20061;-74
2023/05/28 01:16:14;;;;;;;30.35;11.18;;;;;;;;;;5014388;28;20030;-74
2023/05/28 01:18:41;;;;;;;34.47;11.15;;;;;;;;;;5014301;28;20026;-73
2023/05/28 01:21:08;;;;;;;35.10;10.45;;;;;;;;;;5013955;28;20030;-74
2023/05/28 01:23:46;;;;;;;30.73;10.60;;;;;;;;;;5013987;28;20049;-73
2023/05/28 01:26:13;;;;;;;27.58;9.48;;;;;;;;;;5014873;28;20022;-73
2023/05/28 01:28:44;;;;;;;31.70;9.10;;;;;;;;;;5014223;28;20026;-72
2023/05/28 01:31:14;;;;;;;23.15;8.70;;;;;;;;;;5013906;28;20102;-72
2023/05/28 01:33:41;;;;;;;28.45;9.10;;;;;;;;;;5013799;28;20503;-72
2023/05/28 01:36:10;;;;;;;23.88;8.30;;;;;;;;;;5013846;28;20036;-72
2023/05/28 01:38:39;;;;;;;25.98;8.57;;;;;;;;;;5013849;28;20022;-72
2023/05/28 01:41:05;;;;;;;31.20;8.18;;;;;;;;;;5013581;28;20022;-73
2023/05/28 01:43:32;;;;;;;28.92;7.93;;;;;;;;;;5013551;28;20026;-73
2023/05/28 01:45:58;;;;;;;23.05;8.18;;;;;;;;;;5013954;28;20041;-73
2023/05/28 01:48:25;;;;;;;19.05;7.47;;;;;;;;;;5013580;28;20044;-73
2023/05/28 01:50:52;;;;;;;21.30;7.55;;;;;;;;;;5013576;28;20026;-73
2023/05/28 01:53:18;;;;;;;30.63;7.90;;;;;;;;;;5013380;28;20615;-73
2023/05/28 01:55:44;;;;;;;31.73;8.52;;;;;;;;;;5012805;28;20208;-73
2023/05/28 01:58:10;;;;;;;22.10;8.00;;;;;;;;;;5013564;28;20052;-72
2023/05/28 02:00:41;;;;;;;26.88;8.18;;;;;;;;;;5014197;28;20033;-73
2023/05/28 02:03:11;;;;;;;26.25;8.13;;;;;;;;;;5013193;28;20022;-73
2023/05/28 02:05:36;;;;;;;29.23;7.70;;;;;;;;;;5013270;28;20013;-73
2023/05/28 02:08:02;;;;;;;26.38;8.18;;;;;;;;;;5013179;28;20480;-73
2023/05/28 02:10:28;;;;;;;28.58;7.70;;;;;;;;;;5032062;28;20036;-73
2023/05/28 02:12:54;;;;;;;29.60;8.82;;;;;;;;;;5032265;28;20065;-73
2023/05/28 02:15:21;;;;;;;19.88;8.18;;;;;;;;;;5032801;28;20435;-73
2023/05/28 02:17:47;;;;;;;21.83;8.50;;;;;;;;;;5032741;28;20040;-73
2023/05/28 02:20:13;;;;;;;23.10;7.80;;;;;;;;;;5032660;28;20104;-73
2023/05/28 02:22:39;;;;;;;27.77;7.82;;;;;;;;;;5031770;28;20096;-73
2023/05/28 02:25:06;;;;;;;20.83;7.38;;;;;;;;;;5032839;28;20021;-73
2023/05/28 02:27:32;;;;;;;28.02;7.55;;;;;;;;;;5032636;28;20510;-72
2023/05/28 02:29:58;;;;;;;26.27;7.97;;;;;;;;;;5032792;28;20391;-71
2023/05/28 02:32:24;;;;;;;31.33;8.32;;;;;;;;;;5031822;28;20021;-73
2023/05/28 02:34:50;;;;;;;22.50;7.20;;;;;;;;;;5032382;28;20398;-73
2023/05/28 02:37:16;;;;;;;21.40;7.40;;;;;;;;;;5032453;28;20079;-72
2023/05/28 02:39:42;;;;;;;24.30;7.07;;;;;;;;;;5032342;28;20028;-72
2023/05/28 02:42:08;;;;;;;17.55;5.82;;;;;;;;;;5031504;28;20041;-72
2023/05/28 02:44:34;;;;;;;25.75;7.60;;;;;;;;;;5032308;28;20060;-73
2023/05/28 02:47:00;;;;;;;21.70;6.95;;;;;;;;;;5032177;28;20022;-73
2023/05/28 02:49:26;;;;;;;26.10;7.40;;;;;;;;;;5031998;28;20025;-73
2023/05/28 02:51:52;;;;;;;20.85;6.60;;;;;;;;;;5031296;28;20030;-73
2023/05/28 02:54:18;;;;;;;26.77;7.63;;;;;;;;;;5031955;28;20030;-73
2023/05/28 02:56:44;;;;;;;19.17;6.93;;;;;;;;;;5032122;28;20061;-72
2023/05/28 02:59:10;;;;;;;27.40;8.20;;;;;;;;;;5032051;28;20068;-72
2023/05/28 03:01:36;;;;;;;25.80;7.53;;;;;;;;;;5031858;28;20022;-72
2023/05/28 03:04:02;;;;;;;24.35;8.10;;;;;;;;;;5031415;28;20034;-72
2023/05/28 03:06:28;;;;;;;24.52;7.70;;;;;;;;;;5031608;28;20808;-72
2023/05/28 03:08:54;;;;;;;24.90;8.85;;;;;;;;;;5031305;28;20033;-72
2023/05/28 03:11:20;;;;;;;27.48;10.48;;;;;;;;;;5031999;28;20017;-72
2023/05/28 03:13:46;;;;;;;30.25;10.32;;;;;;;;;;5031955;28;20045;-71
2023/05/28 03:16:12;;;;;;;27.60;9.48;;;;;;;;;;5030959;28;20418;-77
2023/05/28 03:18:38;;;;;;;28.40;8.68;;;;;;;;;;5031961;28;20033;-71
2023/05/28 03:21:04;;;;;;;31.40;8.75;;;;;;;;;;5031666;28;20071;-72
2023/05/28 03:23:30;;;;;;;33.55;9.52;;;;;;;;;;5031467;28;20032;-71
2023/05/28 03:25:56;;;;;;;26.63;8.63;;;;;;;;;;5031855;28;20025;-72
2023/05/28 03:28:23;;;;;;;27.33;8.93;;;;;;;;;;5031850;28;20025;-72
2023/05/28 03:30:49;;;;;;;25.80;8.35;;;;;;;;;;5031498;28;20446;-72
2023/05/28 03:33:15;;;;;;;33.88;9.30;;;;;;;;;;5031242;28;20029;-72
2023/05/28 03:35:41;;;;;;;28.73;8.80;;;;;;;;;;5031629;28;20104;-72
2023/05/28 03:38:07;;;;;;;31.83;9.30;;;;;;;;;;5031627;28;20083;-73
2023/05/28 03:40:33;;;;;;;26.10;9.27;;;;;;;;;;5031477;28;20040;-72
2023/05/28 03:42:59;;;;;;;27.58;9.45;;;;;;;;;;5031318;28;20021;-73
2023/05/28 03:45:25;;;;;;;33.20;10.02;;;;;;;;;;5031499;28;20411;-73
2023/05/28 03:47:51;;;;;;;32.17;9.32;;;;;;;;;;5031583;28;20059;-74
2023/05/28 03:50:17;;;;;;;26.02;9.52;;;;;;;;;;5031714;28;20033;-72
2023/05/28 03:52:43;;;;;;;31.75;9.88;;;;;;;;;;5031382;28;20068;-73
2023/05/28 03:55:09;;;;;;;36.28;10.23;;;;;;;;;;5031512;28;20107;-73
2023/05/28 03:57:36;;;;;;;38.58;10.40;;;;;;;;;;5031474;28;20029;-72
2023/05/28 04:00:02;;;;;;;41.60;10.65;;;;;;;;;;5031489;28;20026;-75
2023/05/28 04:02:28;;;;;;;31.42;10.18;;;;;;;;;;5030987;28;20022;-72
2023/05/28 04:04:54;;;;;;;27.58;9.90;;;;;;;;;;5031436;28;20117;-72
2023/05/28 04:07:20;;;;;;;31.80;9.90;;;;;;;;;;5031538;28;20108;-73
2023/05/28 04:09:46;;;;;;;34.05;10.07;;;;;;;;;;5031296;28;20049;-72
2023/05/28 04:12:12;;;;;;;27.55;9.02;;;;;;;;;;5031351;28;20495;-72
2023/05/28 04:14:40;;;;;;;30.75;10.15;;;;;;;;;;5031786;28;20026;-72
2023/05/28 04:17:06;;;;;;;34.90;10.25;;;;;;;;;;5031406;28;20414;-72
2023/05/28 04:19:32;;;;;;;31.23;10.73;;;;;;;;;;5033839;28;20025;-73
2023/05/28 04:21:58;;;;;;;32.53;10.55;;;;;;;;;;5034918;28;20112;-72
2023/05/28 04:24:24;;;;;;;31.60;9.27;;;;;;;;;;5035284;28;20518;-71
2023/05/28 04:26:51;;;;;;;33.63;10.25;;;;;;;;;;5035681;28;20057;-73
2023/05/28 04:29:17;;;;;;;34.08;10.27;;;;;;;;;;5035659;28;20443;-73
2023/05/28 04:31:43;;;;;;;26.95;9.73;;;;;;;;;;5035254;28;20021;-73
2023/05/28 04:34:09;;;;;;;39.22;10.40;;;;;;;;;;5032137;28;20056;-74
2023/05/28 04:36:36;;;;;;;32.13;9.85;;;;;;;;;;5034377;28;20079;-75
2023/05/28 04:39:04;;;;;;;32.30;10.82;;;;;;;;;;5039885;28;20048;-76
2023/05/28 04:41:30;;;;;;;29.67;10.40;;;;;;;;;;5036519;28;20045;-76
2023/05/28 04:43:57;;;;;;;37.55;10.15;;;;;;;;;;5037072;28;20112;-77
2023/05/28 04:46:25;;;;;;;28.45;10.10;;;;;;;;;;5044229;28;20081;-75
2023/05/28 04:48:51;;;;;;;33.63;10.13;;;;;;;;;;5045187;28;20009;-75
2023/05/28 04:51:18;;;;;;;35.60;11.07;;;;;;;;;;5037754;28;20029;-75
2023/05/28 04:53:44;;;;;;;37.17;10.65;;;;;;;;;;5035641;28;20388;-75
2023/05/28 04:56:10;;;;;;;29.23;9.82;;;;;;;;;;5031892;28;20025;-76
2023/05/28 04:58:36;;;;;;;36.53;11.13;;;;;;;;;;5036619;28;20052;-76
2023/05/28 05:01:02;;;;;;;34.05;9.65;;;;;;;;;;5037323;28;20037;-75
2023/05/28 05:03:29;;;;;;;27.42;9.23;;;;;;;;;;5037457;28;20116;-77
2023/05/28 05:05:55;;;;;;;34.13;10.57;;;;;;;;;;5036961;28;20097;-76
2023/05/28 05:08:21;;;;;;;29.83;10.35;;;;;;;;;;5041902;28;20071;-74
2023/05/28 05:10:47;;;;;;;32.95;10.43;;;;;;;;;;5045449;28;20033;-73
2023/05/28 05:13:13;;;;;;;33.45;11.05;;;;;;;;;;5042284;28;20045;-73
2023/05/28 05:15:39;;;;;;;27.10;9.70;;;;;;;;;;5034919;28;20032;-72
2023/05/28 05:18:05;;;;;;;35.10;10.50;;;;;;;;;;5036171;28;20483;-71
2023/05/28 05:20:31;;;;;;;32.40;10.38;;;;;;;;;;5035453;28;20036;-72
2023/05/28 05:22:57;;;;;;;31.95;9.60;;;;;;;;;;5036455;28;20022;-72
2023/05/28 05:25:23;;;;;;;24.33;9.45;;;;;;;;;;5041805;28;20062;-72
2023/05/28 05:27:52;;;;;;;33.55;9.75;;;;;;;;;;5041163;28;20104;-73
2023/05/28 05:30:18;;;;;;;32.35;9.18;;;;;;;;;;5035337;28;20029;-72
2023/05/28 05:32:44;;;;;;;35.05;10.75;;;;;;;;;;5038954;28;20108;-78
2023/05/28 05:35:11;;;;;;;40.47;10.15;;;;;;;;;;5030048;28;20384;-74
2023/05/28 05:37:37;;;;;;;24.83;9.55;;;;;;;;;;5026572;28;20060;-73
2023/05/28 05:40:05;;;;;;;31.48;10.55;;;;;;;;;;5030656;28;20025;-72
2023/05/28 05:42:31;;;;;;;28.67;10.25;;;;;;;;;;5028500;28;20037;-73
2023/05/28 05:44:57;;;;;;;28.05;10.45;;;;;;;;;;5032363;28;20040;-73
2023/05/28 05:47:23;;;;;;;29.40;9.55;;;;;;;;;;5032824;28;20109;-72
2023/05/28 05:49:49;;;;;;;30.48;9.82;;;;;;;;;;5033113;28;20351;-73
2023/05/28 05:52:15;;;;;;;26.73;8.98;;;;;;;;;;5032576;28;20025;-72
2023/05/28 05:54:41;;;;;;;30.33;9.38;;;;;;;;;;5033260;28;20483;-72
2023/05/28 05:57:07;;;;;;;31.35;9.45;;;;;;;;;;5034283;28;20083;-74
2023/05/28 05:59:33;;;;;;;29.52;10.18;;;;;;;;;;5033484;28;20390;-73
2023/05/28 06:02:00;;;;;;;30.67;9.15;;;;;;;;;;5033646;28;20116;-72
2023/05/28 06:04:31;;;;;;;32.40;8.90;;;;;;;;;;5033043;28;20021;-72
2023/05/28 06:06:57;;;;;;;37.53;9.65;;;;;;;;;;5026461;28;20479;-73
2023/05/28 06:09:24;;;;;;;32.10;8.85;;;;;;;;;;5030492;28;20275;-73
2023/05/28 06:11:50;;;;;;;37.92;9.00;;;;;;;;;;5032130;28;20087;-73
2023/05/28 06:14:16;;;;;;;32.63;9.13;;;;;;;;;;5030493;28;20025;-73
2023/05/28 06:16:42;;;;;;;40.88;9.88;;;;;;;;;;5033601;28;20033;-73
2023/05/28 06:19:08;;;;;;;31.92;8.15;;;;;;;;;;5033365;28;20125;-72
2023/05/28 06:21:36;;;;;;;26.52;7.95;;;;;;;;;;5033745;28;20032;-73
2023/05/28 06:24:02;;;;;;;29.98;8.80;;;;;;;;;;5033115;28;20024;-73
2023/05/28 06:26:28;;;;;;;38.05;8.60;;;;;;;;;;5033381;28;20022;-72
2023/05/28 06:28:55;;;;;;;26.25;8.73;;;;;;;;;;5033552;28;20024;-71
2023/05/28 06:31:21;;;;;;;36.70;9.02;;;;;;;;;;5033327;28;20033;-72
2023/05/28 06:33:47;;;;;;;28.70;8.63;;;;;;;;;;5032835;28;20032;-72
2023/05/28 06:36:13;;;;;;;29.30;7.80;;;;;;;;;;5034190;28;20101;-71
2023/05/28 06:38:39;;;;;;;41.40;8.43;;;;;;;;;;5034598;28;20072;-75
2023/05/28 06:41:05;;;;;;;22.40;7.28;;;;;;;;;;5034428;28;20029;-71
2023/05/28 06:43:31;;;;;;;31.33;8.43;;;;;;;;;;5034499;28;20048;-71
2023/05/28 06:45:57;;;;;;;31.65;8.50;;;;;;;;;;5037083;28;20025;-75
2023/05/28 06:48:23;;;;;;;29.00;7.40;;;;;;;;;;5035178;28;20095;-72
2023/05/28 06:50:49;;;;;;;37.10;7.38;;;;;;;;;;5036144;28;20021;-72
2023/05/28 06:53:15;;;;;;;33.08;7.10;;;;;;;;;;5034506;28;20093;-71
2023/05/28 06:55:41;;;;;;;35.50;6.97;;;;;;;;;;5036062;28;20489;-77
2023/05/28 06:58:07;;;;;;;28.48;6.65;;;;;;;;;;5036022;28;20026;-74
2023/05/28 07:00:34;;;;;;;26.98;7.05;;;;;;;;;;5036315;28;20051;-74
2023/05/28 07:02:59;;;;;;;33.15;7.60;;;;;;;;;;5035756;28;20026;-74
2023/05/28 07:05:25;;;;;;;26.65;6.90;;;;;;;;;;5033685;28;20028;-75
2023/05/28 07:07:51;;;;;;;27.90;7.15;;;;;;;;;;5032260;28;20024;-74
2023/05/28 07:10:17;;;;;;;27.15;7.32;;;;;;;;;;5032618;28;20052;-73
2023/05/28 07:12:43;;;;;;;27.42;7.10;;;;;;;;;;5031263;28;20057;-72
2023/05/28 07:15:10;;;;;;;28.27;6.85;;;;;;;;;;5031993;28;20095;-75
2023/05/28 07:17:36;;;;;;;26.40;7.15;;;;;;;;;;5031381;28;20026;-73
2023/05/28 07:20:04;;;;;;;31.38;7.57;;;;;;;;;;5030630;28;20036;-74
2023/05/28 07:22:30;;;;;;;31.00;8.05;;;;;;;;;;5030626;28;20025;-74
2023/05/28 07:24:56;;;;;;;31.05;7.97;;;;;;;;;;5031070;28;20074;-73
2023/05/28 07:27:22;;;;;;;27.63;7.45;;;;;;;;;;5031161;28;20487;-72
2023/05/28 07:29:48;;;;;;;30.42;7.70;;;;;;;;;;5030974;28;20033;-72
2023/05/28 07:32:14;;;;;;;32.33;7.00;;;;;;;;;;5030100;28;20030;-73
2023/05/28 07:34:41;;;;;;;26.35;7.20;;;;;;;;;;5031456;28;20367;-74
2023/05/28 07:37:07;;;;;;;23.75;6.53;;;;;;;;;;5031724;28;20104;-73
2023/05/28 07:39:33;;;;;;;31.85;7.13;;;;;;;;;;5031362;28;20088;-75
2023/05/28 07:41:59;;;;;;;27.13;7.25;;;;;;;;;;5030614;28;20022;-74
2023/05/28 07:44:25;;;;;;;29.75;7.20;;;;;;;;;;5029005;28;20609;-73
2023/05/28 07:46:51;;;;;;;26.08;7.50;;;;;;;;;;5030805;28;20026;-74
2023/05/28 07:49:17;;;;;;;21.35;6.32;;;;;;;;;;5030717;28;20036;-73
2023/05/28 07:51:43;;;;;;;21.35;5.88;;;;;;;;;;5030293;28;20026;-73
2023/05/28 07:54:10;;;;;;;27.38;6.43;;;;;;;;;;5032678;28;20084;-73
2023/05/28 07:56:36;;;;;;;21.73;5.57;;;;;;;;;;5035544;28;20025;-73
2023/05/28 07:59:04;;;;;;;24.63;6.20;;;;;;;;;;5037456;28;20226;-74
2023/05/28 08:01:30;;;;;;;22.95;5.85;;;;;;;;;;5037269;28;20506;-74
2023/05/28 08:03:56;;;;;;;22.30;6.18;;;;;;;;;;5036557;28;20036;-73
2023/05/28 08:06:22;;;;;;;23.35;5.78;;;;;;;;;;5037090;28;20022;-73
2023/05/28 08:08:48;;;;;;;20.00;5.68;;;;;;;;;;5037569;28;20061;-72
2023/05/28 08:11:14;;;;;;;22.70;5.55;;;;;;;;;;5036710;28;20030;-74
2023/05/28 08:13:41;;;;;;;21.98;5.85;;;;;;;;;;5038911;28;20072;-73
2023/05/28 08:16:07;;;;;;;21.23;5.75;;;;;;;;;;5035723;28;20109;-74
2023/05/28 08:18:33;;;;;;;16.67;5.28;;;;;;;;;;5038552;28;20057;-73
2023/05/28 08:20:59;;;;;;;23.20;5.68;;;;;;;;;;5037714;28;20029;-73
2023/05/28 08:23:25;;;;;;;25.52;5.30;;;;;;;;;;5035314;28;20022;-73
2023/05/28 08:25:51;;;;;;;19.67;5.47;;;;;;;;;;5038295;28;20467;-74
2023/05/28 08:28:17;;;;;;;20.60;5.18;;;;;;;;;;5038969;28;20029;-73
2023/05/28 08:30:43;;;;;;;13.98;4.25;;;;;;;;;;5037244;28;20055;-72
2023/05/28 08:33:09;;;;;;;20.48;5.43;;;;;;;;;;5036129;28;20036;-72
2023/05/28 08:35:35;;;;;;;20.38;5.03;;;;;;;;;;5036562;28;20021;-73
2023/05/28 08:38:01;;;;;;;18.15;5.22;;;;;;;;;;5036573;28;20379;-73
2023/05/28 08:40:27;;;;;;;20.88;5.32;;;;;;;;;;5035829;28;20029;-74
2023/05/28 08:42:53;;;;;;;26.65;5.95;;;;;;;;;;5035201;28;20497;-78
2023/05/28 08:45:19;;;;;;;18.70;5.25;;;;;;;;;;5036591;28;20021;-73
2023/05/28 08:47:46;;;;;;;24.65;5.20;;;;;;;;;;5035202;28;20379;-73
2023/05/28 08:50:12;;;;;;;24.25;5.10;;;;;;;;;;5033681;28;20463;-72
2023/05/28 08:52:38;;;;;;;21.75;5.35;;;;;;;;;;5031237;28;20128;-73
2023/05/28 08:55:05;;;;;;;23.15;6.28;;;;;;;;;;5033937;28;20101;-74
2023/05/28 08:57:31;;;;;;;21.15;5.85;;;;;;;;;;5033943;28;20029;-73
2023/05/28 08:59:57;;;;;;;25.73;5.60;;;;;;;;;;5034279;28;20022;-73
2023/05/28 09:02:24;;;;;;;16.33;5.30;;;;;;;;;;5033782;28;20101;-73
2023/05/28 09:04:50;;;;;;;16.85;4.70;;;;;;;;;;5033556;28;20028;-73
2023/05/28 09:07:17;;;;;;;15.55;4.85;;;;;;;;;;5033502;28;20021;-73
2023/05/28 09:09:43;;;;;;;21.17;5.72;;;;;;;;;;5033302;28;20033;-73
2023/05/28 09:12:20;;;;;;;22.95;6.20;;;;;;;;;;5034402;28;20036;-73
2023/05/28 09:14:46;;;;;;;18.63;5.07;;;;;;;;;;5034664;28;20079;-73
2023/05/28 09:17:13;;;;;;;21.98;5.38;;;;;;;;;;5033206;28;20049;-73
2023/05/28 09:19:40;;;;;;;21.88;4.75;;;;;;;;;;5032790;28;20033;-74
2023/05/28 09:22:06;;;;;;;17.38;4.97;;;;;;;;;;5032366;28;20033;-74
2023/05/28 09:24:32;;;;;;;15.35;4.57;;;;;;;;;;5033207;28;20028;-72
2023/05/28 09:26:58;;;;;;;22.73;5.78;;;;;;;;;;5033229;28;20025;-74
2023/05/28 09:29:25;;;;;;;21.88;5.40;;;;;;;;;;5033159;28;20061;-73
2023/05/28 09:31:58;;;;;;;23.30;6.97;;;;;;;;;;5031643;28;20448;-73
2023/05/28 09:34:31;;;;;;;22.55;5.80;;;;;;;;;;5033107;28;20064;-73
2023/05/28 09:37:01;;;;;;;25.67;5.18;;;;;;;;;;5033779;28;20028;-74
2023/05/28 09:39:27;;;;;;;18.98;4.80;;;;;;;;;;5032766;28;20101;-73
2023/05/28 09:42:03;;;;;;;20.70;5.40;;;;;;;;;;5031923;28;20026;-72
2023/05/28 09:44:31;;;;;;;20.92;5.25;;;;;;;;;;5032714;28;20100;-73
2023/05/28 09:46:58;;;;;;;20.40;5.90;;;;;;;;;;5032594;28;20387;-74
2023/05/28 09:49:24;;;;;;;23.52;5.88;;;;;;;;;;5032808;28;20021;-74
2023/05/28 09:51:54;;;;;;;18.77;5.68;;;;;;;;;;5030625;28;20037;-74
2023/05/28 09:54:20;;;;;;;22.38;5.55;;;;;;;;;;5032643;28;20086;-74
2023/05/28 09:56:47;;;;;;;21.17;6.15;;;;;;;;;;5032462;28;20033;-73
2023/05/28 09:59:13;;;;;;;27.52;6.45;;;;;;;;;;5031953;28;20083;-74
2023/05/28 10:01:40;;;;;;;16.25;5.28;;;;;;;;;;5032323;28;20479;-75
2023/05/28 10:04:11;;;;;;;23.05;5.68;;;;;;;;;;5031792;28;20139;-74
2023/05/28 10:06:39;;;;;;;17.33;5.40;;;;;;;;;;5032300;28;20096;-73
2023/05/28 10:09:05;;;;;;;25.45;5.95;;;;;;;;;;5032085;28;20044;-73
2023/05/28 10:11:35;;;;;;;19.50;5.68;;;;;;;;;;5031751;28;20029;-74
2023/05/28 10:14:01;;;;;;;18.60;5.60;;;;;;;;;;5032512;28;20032;-73
2023/05/28 10:16:27;;;;;;;21.50;5.38;;;;;;;;;;5032611;28;20029;-74
2023/05/28 10:18:55;;;;;;;24.42;6.38;;;;;;;;;;5035256;28;20112;-74
2023/05/28 10:21:21;;;;;;;17.73;5.60;;;;;;;;;;5035376;28;20021;-72
2023/05/28 10:23:47;;;;;;;22.92;6.47;;;;;;;;;;5034346;28;20087;-74
2023/05/28 10:26:15;;;;;;;21.50;6.03;;;;;;;;;;5034706;28;20053;-72
2023/05/28 10:28:41;;;;;;;21.08;5.57;;;;;;;;;;5034409;28;20018;-75
2023/05/28 10:31:08;;;;;;;25.85;6.38;;;;;;;;;;5027140;28;20029;-74
2023/05/28 10:33:41;;;;;;;23.50;6.18;;;;;;;;;;5033231;28;20083;-74
2023/05/28 10:36:15;;;;;;;28.48;6.30;;;;;;;;;;5034409;28;20025;-73
2023/05/28 10:38:42;;;;;;;22.08;6.88;;;;;;;;;;5026889;28;20084;-74
2023/05/28 10:41:08;;;;;;;19.17;6.10;;;;;;;;;;5034791;28;20033;-75
2023/05/28 10:43:42;;;;;;;22.52;6.40;;;;;;;;;;5030412;28;20611;-73
2023/05/28 10:46:10;;;;;;;23.70;6.13;;;;;;;;;;5031605;28;20066;-73
2023/05/28 10:48:59;;;;;;;21.85;6.20;;;;;;;;;;5031494;28;20013;-73
2023/05/28 10:51:42;;;;;;;20.33;4.93;;;;;;;;;;5027785;28;20051;-74
2023/05/28 10:54:27;;;;;;;17.60;5.60;;;;;;;;;;5025241;28;20033;-74
2023/05/28 10:57:32;;;;;;;25.45;7.68;;;;;;;;;;5030929;28;20055;-74
2023/05/28 11:00:07;;;;;;;16.50;5.20;;;;;;;;;;5017058;28;20084;-74
2023/05/28 11:02:35;;;;;;;15.27;5.85;;;;;;;;;;5017453;28;20042;-74
2023/05/28 11:05:02;;;;;;;23.45;5.70;;;;;;;;;;5017756;28;20033;-76
2023/05/28 11:07:30;;;;;;;21.80;5.53;;;;;;;;;;5023341;28;20032;-74
2023/05/28 11:09:57;;;;;;;20.05;5.47;;;;;;;;;;5028898;28;20033;-76
2023/05/28 11:12:23;;;;;;;19.23;5.90;;;;;;;;;;5030338;28;20041;-74
2023/05/28 11:14:49;;;;;;;17.48;6.07;;;;;;;;;;5031967;28;20503;-73
2023/05/28 11:17:15;;;;;;;22.75;6.40;;;;;;;;;;5032387;28;20025;-73
2023/05/28 11:19:42;;;;;;;18.85;5.65;;;;;;;;;;5032127;28;20037;-74
2023/05/28 11:22:08;;;;;;;20.67;6.15;;;;;;;;;;5031885;28;20104;-73
2023/05/28 11:24:50;;;;;;;19.98;5.57;;;;;;;;;;5031120;28;20392;-73
2023/05/28 11:27:16;;;;;;;24.85;6.32;;;;;;;;;;5027794;28;20036;-73
2023/05/28 11:29:42;;;;;;;22.08;6.03;;;;;;;;;;5029604;28;20041;-74
2023/05/28 11:32:08;;;;;;;22.10;6.50;;;;;;;;;;5031316;28;20511;-73
2023/05/28 11:34:34;;;;;;;18.48;5.80;;;;;;;;;;5030926;28;20069;-74
2023/05/28 11:37:00;;;;;;;21.48;5.93;;;;;;;;;;5033549;28;20028;-73
2023/05/28 11:39:26;;;;;;;21.48;5.97;;;;;;;;;;5034448;28;20128;-73
2023/05/28 11:41:52;;;;;;;21.48;5.68;;;;;;;;;;5035445;28;20022;-73
2023/05/28 11:44:19;;;;;;;20.75;5.95;;;;;;;;;;5034166;28;20130;-77
2023/05/28 11:46:45;;;;;;;15.38;5.15;;;;;;;;;;5032886;28;20068;-77
2023/05/28 11:49:11;;;;;;;17.33;5.40;;;;;;;;;;5034613;28;20028;-79
2023/05/28 11:51:37;;;;;;;19.35;5.43;;;;;;;;;;5049844;28;20081;-74
2023/05/28 11:54:03;;;;;;;22.77;5.43;;;;;;;;;;5032585;28;20526;-74
2023/05/28 11:56:29;;;;;;;19.45;5.40;;;;;;;;;;5030764;28;20125;-74
2023/05/28 11:58:59;;;;;;;18.52;5.72;;;;;;;;;;5032151;28;20076;-73
2023/05/28 12:01:25;;;;;;;16.13;5.13;;;;;;;;;;5031374;28;20476;-73
2023/05/28 12:03:51;;;;;;;18.52;4.88;;;;;;;;;;5031392;28;20036;-75
2023/05/28 12:06:17;;;;;;;14.77;4.88;;;;;;;;;;5031811;28;20048;-73
2023/05/28 12:08:43;;;;;;;13.70;4.80;;;;;;;;;;5032717;28;20029;-74
2023/05/28 12:11:09;;;;;;;19.30;5.22;;;;;;;;;;5032572;28;20037;-73
2023/05/28 12:13:36;;;;;;;18.65;5.47;;;;;;;;;;5032908;28;20088;-73
2023/05/28 12:16:09;;;;;;;20.52;5.72;;;;;;;;;;5032519;28;20086;-74
2023/05/28 12:18:40;;;;;;;22.67;7.05;;;;;;;;;;5032326;28;20029;-74
2023/05/28 12:21:10;;;;;;;18.60;6.57;;;;;;;;;;5032938;28;20037;-74
2023/05/28 12:23:36;;;;;;;15.82;5.30;;;;;;;;;;5032326;28;20022;-73
2023/05/28 12:26:02;;;;;;;16.13;5.15;;;;;;;;;;5032932;28;20491;-73
2023/05/28 12:28:28;;;;;;;19.33;5.15;;;;;;;;;;5034408;28;20029;-74
2023/05/28 12:30:55;;;;;;;15.02;4.65;;;;;;;;;;5033133;28;20387;-74
2023/05/28 12:33:22;;;;;;;17.23;5.57;;;;;;;;;;5032382;28;20049;-74
2023/05/28 12:35:48;;;;;;;14.15;4.70;;;;;;;;;;5032823;28;20432;-74
2023/05/28 12:38:14;;;;;;;15.07;4.40;;;;;;;;;;5032498;28;20105;-74
2023/05/28 12:40:40;;;;;;;15.60;4.50;;;;;;;;;;5035139;28;20013;-73
2023/05/28 12:43:09;;;;;;;15.13;4.38;;;;;;;;;;5035837;28;20021;-73
2023/05/28 12:45:36;;;;;;;13.05;4.18;;;;;;;;;;5036337;28;20021;-75
2023/05/28 12:48:02;;;;;;;18.52;5.65;;;;;;;;;;5036707;28;20105;-75
2023/05/28 12:50:28;;;;;;;17.08;5.35;;;;;;;;;;5037431;28;20061;-75
2023/05/28 12:52:54;;;;;;;15.70;5.03;;;;;;;;;;5036795;28;20032;-74
2023/05/28 12:55:20;;;;;;;14.52;4.65;;;;;;;;;;5037349;28;20044;-74
2023/05/28 12:57:46;;;;;;;16.23;4.72;;;;;;;;;;5037503;28;20095;-73
2023/05/28 13:00:13;;;;;;;18.30;4.60;;;;;;;;;;5040043;28;20105;-73
2023/05/28 13:02:39;;;;;;;13.00;4.88;;;;;;;;;;5038327;28;20029;-73
2023/05/28 13:05:05;;;;;;;12.48;4.55;;;;;;;;;;5037469;28;20526;-75
2023/05/28 13:07:31;;;;;;;15.00;5.45;;;;;;;;;;5036335;28;20033;-74
2023/05/28 13:09:57;;;;;;;17.58;5.30;;;;;;;;;;5036221;28;20164;-74
2023/05/28 13:12:23;;;;;;;11.38;4.53;;;;;;;;;;5036865;28;20049;-75
2023/05/28 13:14:49;;;;;;;11.68;4.97;;;;;;;;;;5034337;28;20040;-72
2023/05/28 13:17:15;;;;;;;15.25;5.30;;;;;;;;;;5034304;28;20132;-74
2023/05/28 13:19:41;;;;;;;12.32;4.38;;;;;;;;;;5034560;28;20029;-75
2023/05/28 13:22:10;;;;;;;13.43;4.45;;;;;;;;;;5034069;28;20095;-73
2023/05/28 13:24:37;;;;;;;14.40;4.95;;;;;;;;;;5034758;28;20057;-73
2023/05/28 13:27:03;;;;;;;14.73;4.97;;;;;;;;;;5034217;28;20025;-73
2023/05/28 13:29:29;;;;;;;12.95;4.47;;;;;;;;;;5034134;28;20025;-74
2023/05/28 13:31:55;;;;;;;10.77;4.72;;;;;;;;;;5034080;28;20397;-74
2023/05/28 13:34:21;;;;;;;13.10;5.10;;;;;;;;;;5034384;28;20077;-74
2023/05/28 13:36:47;;;;;;;11.05;4.95;;;;;;;;;;5034228;28;20122;-73
2023/05/28 13:39:13;;;;;;;11.20;4.60;;;;;;;;;;5034101;28;20076;-74
2023/05/28 13:41:40;;;;;;;11.77;5.35;;;;;;;;;;5033489;28;20525;-74
2023/05/28 13:44:06;;;;;;;10.02;4.55;;;;;;;;;;5033643;28;20026;-77
2023/05/28 13:46:32;;;;;;;10.55;4.07;;;;;;;;;;5031511;28;20104;-73
2023/05/28 13:48:58;;;;;;;11.93;4.93;;;;;;;;;;5032955;28;20482;-73
2023/05/28 13:51:24;;;;;;;12.70;4.20;;;;;;;;;;5032819;28;20108;-73
2023/05/28 13:53:50;;;;;;;12.30;4.65;;;;;;;;;;5034057;28;20056;-72
2023/05/28 13:56:16;;;;;;;12.68;4.53;;;;;;;;;;5033719;28;20114;-73
2023/05/28 13:58:42;;;;;;;12.65;4.80;;;;;;;;;;5033664;28;20060;-74
2023/05/28 14:01:08;;;;;;;12.45;5.10;;;;;;;;;;5033813;28;20033;-74
2023/05/28 14:03:34;;;;;;;11.95;4.25;;;;;;;;;;5032820;28;20031;-73
2023/05/28 14:06:00;;;;;;;11.60;4.75;;;;;;;;;;5033519;28;20022;-73
2023/05/28 14:08:26;;;;;;;13.50;4.40;;;;;;;;;;5033182;28;20125;-74
2023/05/28 14:10:52;;;;;;;14.50;5.18;;;;;;;;;;5047452;28;20108;-73
2023/05/28 14:13:18;;;;;;;12.63;4.85;;;;;;;;;;5052383;28;20078;-72
2023/05/28 14:15:44;;;;;;;9.07;4.18;;;;;;;;;;5052634;28;20025;-74
2023/05/28 14:18:11;;;;;;;10.60;4.43;;;;;;;;;;5052697;28;20052;-72
2023/05/28 14:20:37;;;;;;;9.68;4.30;;;;;;;;;;5052422;28;20398;-74
2023/05/28 14:23:04;;;;;;;13.20;5.32;;;;;;;;;;5051840;28;20027;-74
2023/05/28 14:25:30;;;;;;;10.60;4.35;;;;;;;;;;5052294;28;20025;-74